sensor_id;sensor_type;location;lat;lon;timestamp;P1;durP1;ratioP1;P2;durP2;ratioP2
56429;SDS011;42332;52.136;20.666;2023-06-04T00:01:57;12.30;;;4.82;;
56429;SDS011;42332;52.136;20.666;2023-06-04T00:04:24;14.70;;;4.65;;
56429;SDS011;42332;52.136;20.666;2023-06-04T00:06:50;9.93;;;4.38;;
56429;SDS011;42332;52.136;20.666;2023-06-04T00:09:15;12.82;;;4.65;;
56429;SDS011;42332;52.136;20.666;2023-06-04T00:11:41;10.75;;;4.78;;
56429;SDS011;42332;52.136;20.666;2023-06-04T00:14:06;15.02;;;5.03;;
56429;SDS011;42332;52.136;20.666;2023-06-04T00:16:31;10.57;;;4.53;;
56429;SDS011;42332;52.136;20.666;2023-06-04T00:18:57;11.00;;;4.38;;
56429;SDS011;42332;52.136;20.666;2023-06-04T00:21:22;11.73;;;4.60;;
56429;SDS011;42332;52.136;20.666;2023-06-04T00:23:48;14.70;;;5.15;;
56429;SDS011;42332;52.136;20.666;2023-06-04T00:26:13;15.73;;;4.95;;
56429;SDS011;42332;52.136;20.666;2023-06-04T00:28:39;10.40;;;4.30;;
56429;SDS011;42332;52.136;20.666;2023-06-04T00:31:05;10.40;;;4.30;;
56429;SDS011;42332;52.136;20.666;2023-06-04T00:33:31;12.55;;;4.35;;
56429;SDS011;42332;52.136;20.666;2023-06-04T00:35:56;11.48;;;4.43;;
56429;SDS011;42332;52.136;20.666;2023-06-04T00:38:22;10.93;;;4.38;;
56429;SDS011;42332;52.136;20.666;2023-06-04T00:40:47;10.93;;;4.07;;
56429;SDS011;42332;52.136;20.666;2023-06-04T00:43:12;15.50;;;4.47;;
56429;SDS011;42332;52.136;20.666;2023-06-04T00:45:38;13.57;;;4.82;;
56429;SDS011;42332;52.136;20.666;2023-06-04T00:48:04;11.93;;;4.32;;
56429;SDS011;42332;52.136;20.666;2023-06-04T00:50:30;12.68;;;4.60;;
56429;SDS011;42332;52.136;20.666;2023-06-04T00:52:58;10.45;;;4.50;;
56429;SDS011;42332;52.136;20.666;2023-06-04T00:55:23;16.60;;;4.28;;
56429;SDS011;42332;52.136;20.666;2023-06-04T00:57:49;11.95;;;4.30;;
56429;SDS011;42332;52.136;20.666;2023-06-04T01:00:15;12.38;;;4.47;;
56429;SDS011;42332;52.136;20.666;2023-06-04T01:02:42;15.43;;;4.63;;
56429;SDS011;42332;52.136;20.666;2023-06-04T01:07:39;10.73;;;4.00;;
56429;SDS011;42332;52.136;20.666;2023-06-04T01:10:11;9.85;;;4.43;;
56429;SDS011;42332;52.136;20.666;2023-06-04T01:12:40;11.35;;;4.22;;
56429;SDS011;42332;52.136;20.666;2023-06-04T01:15:07;11.73;;;4.00;;
56429;SDS011;42332;52.136;20.666;2023-06-04T01:17:43;12.27;;;4.95;;
56429;SDS011;42332;52.136;20.666;2023-06-04T01:25:26;12.45;;;4.43;;
56429;SDS011;42332;52.136;20.666;2023-06-04T01:27:55;8.93;;;4.70;;
56429;SDS011;42332;52.136;20.666;2023-06-04T01:30:25;10.70;;;4.75;;
56429;SDS011;42332;52.136;20.666;2023-06-04T01:32:54;17.10;;;4.13;;
56429;SDS011;42332;52.136;20.666;2023-06-04T01:35:20;12.98;;;3.90;;
56429;SDS011;42332;52.136;20.666;2023-06-04T01:37:45;11.70;;;4.63;;
56429;SDS011;42332;52.136;20.666;2023-06-04T01:40:11;12.65;;;4.40;;
56429;SDS011;42332;52.136;20.666;2023-06-04T01:42:37;11.68;;;4.55;;
56429;SDS011;42332;52.136;20.666;2023-06-04T01:45:02;13.85;;;4.40;;
56429;SDS011;42332;52.136;20.666;2023-06-04T01:47:28;10.93;;;4.40;;
56429;SDS011;42332;52.136;20.666;2023-06-04T01:49:53;13.20;;;4.57;;
56429;SDS011;42332;52.136;20.666;2023-06-04T01:52:18;9.35;;;3.92;;
56429;SDS011;42332;52.136;20.666;2023-06-04T01:54:46;8.15;;;3.72;;
56429;SDS011;42332;52.136;20.666;2023-06-04T01:57:13;12.45;;;3.90;;
56429;SDS011;42332;52.136;20.666;2023-06-04T01:59:39;9.65;;;3.60;;
56429;SDS011;42332;52.136;20.666;2023-06-04T02:02:06;11.02;;;3.78;;
56429;SDS011;42332;52.136;20.666;2023-06-04T02:04:31;11.90;;;4.22;;
56429;SDS011;42332;52.136;20.666;2023-06-04T02:06:57;13.65;;;4.15;;
56429;SDS011;42332;52.136;20.666;2023-06-04T02:09:24;9.13;;;4.10;;
56429;SDS011;42332;52.136;20.666;2023-06-04T02:11:50;11.00;;;3.80;;
56429;SDS011;42332;52.136;20.666;2023-06-04T02:14:16;15.20;;;3.65;;
56429;SDS011;42332;52.136;20.666;2023-06-04T02:16:41;9.38;;;3.97;;
56429;SDS011;42332;52.136;20.666;2023-06-04T02:19:06;13.63;;;3.47;;
56429;SDS011;42332;52.136;20.666;2023-06-04T02:21:32;10.30;;;4.75;;
56429;SDS011;42332;52.136;20.666;2023-06-04T02:23:58;9.32;;;3.70;;
56429;SDS011;42332;52.136;20.666;2023-06-04T02:26:23;11.48;;;3.55;;
56429;SDS011;42332;52.136;20.666;2023-06-04T02:28:50;10.48;;;4.05;;
56429;SDS011;42332;52.136;20.666;2023-06-04T02:31:15;13.90;;;3.63;;
56429;SDS011;42332;52.136;20.666;2023-06-04T02:33:40;8.15;;;3.70;;
56429;SDS011;42332;52.136;20.666;2023-06-04T02:36:06;9.00;;;3.50;;
56429;SDS011;42332;52.136;20.666;2023-06-04T02:38:31;12.05;;;3.80;;
56429;SDS011;42332;52.136;20.666;2023-06-04T02:40:58;9.63;;;4.00;;
56429;SDS011;42332;52.136;20.666;2023-06-04T02:43:23;13.10;;;4.28;;
56429;SDS011;42332;52.136;20.666;2023-06-04T02:45:48;10.73;;;4.13;;
56429;SDS011;42332;52.136;20.666;2023-06-04T02:48:14;13.95;;;3.65;;
56429;SDS011;42332;52.136;20.666;2023-06-04T02:50:39;8.82;;;4.38;;
56429;SDS011;42332;52.136;20.666;2023-06-04T02:53:07;13.40;;;4.50;;
56429;SDS011;42332;52.136;20.666;2023-06-04T02:55:32;13.23;;;4.00;;
56429;SDS011;42332;52.136;20.666;2023-06-04T02:57:58;6.70;;;3.08;;
56429;SDS011;42332;52.136;20.666;2023-06-04T03:00:24;13.48;;;3.78;;
56429;SDS011;42332;52.136;20.666;2023-06-04T03:02:50;13.30;;;4.05;;
56429;SDS011;42332;52.136;20.666;2023-06-04T03:05:16;13.77;;;4.80;;
56429;SDS011;42332;52.136;20.666;2023-06-04T03:07:43;7.47;;;3.55;;
56429;SDS011;42332;52.136;20.666;2023-06-04T03:10:10;8.93;;;4.03;;
56429;SDS011;42332;52.136;20.666;2023-06-04T03:12:36;11.88;;;4.40;;
56429;SDS011;42332;52.136;20.666;2023-06-04T03:15:02;7.70;;;3.30;;
56429;SDS011;42332;52.136;20.666;2023-06-04T03:17:28;10.30;;;4.20;;
56429;SDS011;42332;52.136;20.666;2023-06-04T03:19:54;10.77;;;4.10;;
56429;SDS011;42332;52.136;20.666;2023-06-04T03:22:21;10.05;;;3.60;;
56429;SDS011;42332;52.136;20.666;2023-06-04T03:24:46;9.90;;;3.92;;
56429;SDS011;42332;52.136;20.666;2023-06-04T03:27:12;8.45;;;3.53;;
56429;SDS011;42332;52.136;20.666;2023-06-04T03:29:37;7.85;;;3.72;;
56429;SDS011;42332;52.136;20.666;2023-06-04T03:32:03;11.05;;;4.18;;
56429;SDS011;42332;52.136;20.666;2023-06-04T03:34:29;13.10;;;4.57;;
56429;SDS011;42332;52.136;20.666;2023-06-04T03:36:56;10.32;;;3.75;;
56429;SDS011;42332;52.136;20.666;2023-06-04T03:39:22;9.77;;;3.60;;
56429;SDS011;42332;52.136;20.666;2023-06-04T03:41:48;7.82;;;3.72;;
56429;SDS011;42332;52.136;20.666;2023-06-04T03:44:14;8.07;;;3.60;;
56429;SDS011;42332;52.136;20.666;2023-06-04T03:46:40;9.15;;;3.80;;
56429;SDS011;42332;52.136;20.666;2023-06-04T03:49:06;10.68;;;3.80;;
56429;SDS011;42332;52.136;20.666;2023-06-04T03:51:32;11.10;;;3.92;;
56429;SDS011;42332;52.136;20.666;2023-06-04T03:53:58;7.93;;;3.75;;
56429;SDS011;42332;52.136;20.666;2023-06-04T03:56:23;10.43;;;3.60;;
56429;SDS011;42332;52.136;20.666;2023-06-04T03:58:52;13.77;;;3.40;;
56429;SDS011;42332;52.136;20.666;2023-06-04T04:01:17;14.75;;;4.05;;
56429;SDS011;42332;52.136;20.666;2023-06-04T04:03:43;11.20;;;3.80;;
56429;SDS011;42332;52.136;20.666;2023-06-04T04:06:13;11.68;;;3.42;;
56429;SDS011;42332;52.136;20.666;2023-06-04T04:08:39;12.95;;;3.75;;
56429;SDS011;42332;52.136;20.666;2023-06-04T04:11:07;11.48;;;3.58;;
56429;SDS011;42332;52.136;20.666;2023-06-04T04:13:33;9.25;;;3.95;;
56429;SDS011;42332;52.136;20.666;2023-06-04T04:15:58;14.95;;;3.65;;
56429;SDS011;42332;52.136;20.666;2023-06-04T04:18:23;10.40;;;3.55;;
56429;SDS011;42332;52.136;20.666;2023-06-04T04:20:49;10.00;;;3.70;;
56429;SDS011;42332;52.136;20.666;2023-06-04T04:23:14;7.97;;;3.00;;
56429;SDS011;42332;52.136;20.666;2023-06-04T04:25:40;7.78;;;3.10;;
56429;SDS011;42332;52.136;20.666;2023-06-04T04:28:07;14.27;;;3.53;;
56429;SDS011;42332;52.136;20.666;2023-06-04T04:30:35;7.28;;;2.80;;
56429;SDS011;42332;52.136;20.666;2023-06-04T04:33:01;9.55;;;3.10;;
56429;SDS011;42332;52.136;20.666;2023-06-04T04:35:27;8.85;;;3.30;;
56429;SDS011;42332;52.136;20.666;2023-06-04T04:37:53;12.65;;;3.17;;
56429;SDS011;42332;52.136;20.666;2023-06-04T04:40:19;8.23;;;2.92;;
56429;SDS011;42332;52.136;20.666;2023-06-04T04:42:45;10.10;;;2.78;;
56429;SDS011;42332;52.136;20.666;2023-06-04T04:45:10;6.20;;;2.40;;
56429;SDS011;42332;52.136;20.666;2023-06-04T04:47:36;6.57;;;2.15;;
56429;SDS011;42332;52.136;20.666;2023-06-04T04:50:02;6.68;;;2.35;;
56429;SDS011;42332;52.136;20.666;2023-06-04T04:52:27;10.45;;;2.63;;
56429;SDS011;42332;52.136;20.666;2023-06-04T04:54:53;9.68;;;2.40;;
56429;SDS011;42332;52.136;20.666;2023-06-04T04:57:21;5.25;;;2.05;;
56429;SDS011;42332;52.136;20.666;2023-06-04T04:59:47;9.93;;;2.00;;
56429;SDS011;42332;52.136;20.666;2023-06-04T05:02:12;4.72;;;1.75;;
56429;SDS011;42332;52.136;20.666;2023-06-04T05:04:38;6.30;;;2.40;;
56429;SDS011;42332;52.136;20.666;2023-06-04T05:07:03;5.47;;;1.90;;
56429;SDS011;42332;52.136;20.666;2023-06-04T05:09:28;5.43;;;1.80;;
56429;SDS011;42332;52.136;20.666;2023-06-04T05:11:54;10.52;;;2.03;;
56429;SDS011;42332;52.136;20.666;2023-06-04T05:14:19;5.25;;;1.88;;
56429;SDS011;42332;52.136;20.666;2023-06-04T05:16:44;9.90;;;2.05;;
56429;SDS011;42332;52.136;20.666;2023-06-04T05:19:10;5.65;;;1.75;;
56429;SDS011;42332;52.136;20.666;2023-06-04T05:21:36;8.75;;;1.67;;
56429;SDS011;42332;52.136;20.666;2023-06-04T05:24:01;4.28;;;1.70;;
56429;SDS011;42332;52.136;20.666;2023-06-04T05:26:27;8.30;;;1.50;;
56429;SDS011;42332;52.136;20.666;2023-06-04T05:28:53;8.10;;;1.73;;
56429;SDS011;42332;52.136;20.666;2023-06-04T05:31:18;4.63;;;1.75;;
56429;SDS011;42332;52.136;20.666;2023-06-04T05:33:44;8.27;;;1.90;;
56429;SDS011;42332;52.136;20.666;2023-06-04T05:36:10;5.32;;;1.50;;
56429;SDS011;42332;52.136;20.666;2023-06-04T05:38:35;4.60;;;1.40;;
56429;SDS011;42332;52.136;20.666;2023-06-04T05:41:01;7.57;;;1.45;;
56429;SDS011;42332;52.136;20.666;2023-06-04T05:43:26;3.70;;;1.30;;
56429;SDS011;42332;52.136;20.666;2023-06-04T05:45:52;6.75;;;1.50;;
56429;SDS011;42332;52.136;20.666;2023-06-04T05:48:18;3.88;;;1.23;;
56429;SDS011;42332;52.136;20.666;2023-06-04T05:50:43;6.13;;;1.38;;
56429;SDS011;42332;52.136;20.666;2023-06-04T05:53:09;3.25;;;1.30;;
56429;SDS011;42332;52.136;20.666;2023-06-04T05:55:35;5.65;;;1.48;;
56429;SDS011;42332;52.136;20.666;2023-06-04T05:58:00;5.78;;;1.52;;
56429;SDS011;42332;52.136;20.666;2023-06-04T06:00:26;3.97;;;1.63;;
56429;SDS011;42332;52.136;20.666;2023-06-04T06:02:51;3.80;;;1.30;;
56429;SDS011;42332;52.136;20.666;2023-06-04T06:05:20;9.30;;;1.58;;
56429;SDS011;42332;52.136;20.666;2023-06-04T06:07:45;6.43;;;1.20;;
56429;SDS011;42332;52.136;20.666;2023-06-04T06:10:11;5.30;;;1.58;;
56429;SDS011;42332;52.136;20.666;2023-06-04T06:12:38;6.28;;;1.55;;
56429;SDS011;42332;52.136;20.666;2023-06-04T06:15:03;5.07;;;1.42;;
56429;SDS011;42332;52.136;20.666;2023-06-04T06:17:29;5.80;;;1.50;;
56429;SDS011;42332;52.136;20.666;2023-06-04T06:19:55;4.40;;;1.55;;
56429;SDS011;42332;52.136;20.666;2023-06-04T06:22:21;2.70;;;1.35;;
56429;SDS011;42332;52.136;20.666;2023-06-04T06:24:46;5.47;;;1.27;;
56429;SDS011;42332;52.136;20.666;2023-06-04T06:27:13;4.45;;;1.50;;
56429;SDS011;42332;52.136;20.666;2023-06-04T06:29:40;4.57;;;1.20;;
56429;SDS011;42332;52.136;20.666;2023-06-04T06:32:05;2.40;;;0.88;;
56429;SDS011;42332;52.136;20.666;2023-06-04T06:34:31;6.15;;;1.17;;
56429;SDS011;42332;52.136;20.666;2023-06-04T06:36:56;3.53;;;1.30;;
56429;SDS011;42332;52.136;20.666;2023-06-04T06:39:22;4.10;;;1.08;;
56429;SDS011;42332;52.136;20.666;2023-06-04T06:41:47;4.47;;;1.10;;
56429;SDS011;42332;52.136;20.666;2023-06-04T06:44:13;4.57;;;1.10;;
56429;SDS011;42332;52.136;20.666;2023-06-04T06:46:38;3.70;;;1.02;;
56429;SDS011;42332;52.136;20.666;2023-06-04T06:49:03;6.22;;;1.23;;
56429;SDS011;42332;52.136;20.666;2023-06-04T06:51:29;5.03;;;1.00;;
56429;SDS011;42332;52.136;20.666;2023-06-04T06:53:55;3.58;;;1.10;;
56429;SDS011;42332;52.136;20.666;2023-06-04T06:56:20;5.35;;;1.10;;
56429;SDS011;42332;52.136;20.666;2023-06-04T06:58:45;2.90;;;1.05;;
56429;SDS011;42332;52.136;20.666;2023-06-04T07:01:11;4.68;;;1.33;;
56429;SDS011;42332;52.136;20.666;2023-06-04T07:03:37;5.30;;;1.15;;
56429;SDS011;42332;52.136;20.666;2023-06-04T07:06:04;2.90;;;0.80;;
56429;SDS011;42332;52.136;20.666;2023-06-04T07:08:30;2.97;;;1.00;;
56429;SDS011;42332;52.136;20.666;2023-06-04T07:10:56;3.90;;;0.65;;
56429;SDS011;42332;52.136;20.666;2023-06-04T07:13:21;6.50;;;0.77;;
56429;SDS011;42332;52.136;20.666;2023-06-04T07:15:47;3.55;;;1.10;;
56429;SDS011;42332;52.136;20.666;2023-06-04T07:18:12;4.70;;;0.88;;
56429;SDS011;42332;52.136;20.666;2023-06-04T07:20:37;3.72;;;0.80;;
56429;SDS011;42332;52.136;20.666;2023-06-04T07:23:03;4.20;;;1.23;;
56429;SDS011;42332;52.136;20.666;2023-06-04T07:25:28;18.92;;;1.83;;
56429;SDS011;42332;52.136;20.666;2023-06-04T07:27:53;5.68;;;1.15;;
56429;SDS011;42332;52.136;20.666;2023-06-04T07:30:23;5.78;;;1.02;;
56429;SDS011;42332;52.136;20.666;2023-06-04T07:32:48;3.20;;;0.93;;
56429;SDS011;42332;52.136;20.666;2023-06-04T07:35:14;4.05;;;0.95;;
56429;SDS011;42332;52.136;20.666;2023-06-04T07:37:39;2.63;;;0.90;;
56429;SDS011;42332;52.136;20.666;2023-06-04T07:40:05;7.15;;;1.13;;
56429;SDS011;42332;52.136;20.666;2023-06-04T07:42:30;2.47;;;0.80;;
56429;SDS011;42332;52.136;20.666;2023-06-04T07:44:56;3.78;;;1.17;;
56429;SDS011;42332;52.136;20.666;2023-06-04T07:47:21;5.55;;;1.02;;
56429;SDS011;42332;52.136;20.666;2023-06-04T07:49:47;5.40;;;0.90;;
56429;SDS011;42332;52.136;20.666;2023-06-04T07:52:12;4.90;;;0.93;;
56429;SDS011;42332;52.136;20.666;2023-06-04T07:54:38;3.60;;;1.10;;
56429;SDS011;42332;52.136;20.666;2023-06-04T07:57:06;2.58;;;1.00;;
56429;SDS011;42332;52.136;20.666;2023-06-04T07:59:31;2.67;;;1.10;;
56429;SDS011;42332;52.136;20.666;2023-06-04T08:01:56;2.28;;;0.90;;
56429;SDS011;42332;52.136;20.666;2023-06-04T08:04:22;4.68;;;1.20;;
56429;SDS011;42332;52.136;20.666;2023-06-04T08:06:47;8.07;;;1.00;;
56429;SDS011;42332;52.136;20.666;2023-06-04T08:09:14;5.75;;;1.27;;
56429;SDS011;42332;52.136;20.666;2023-06-04T08:11:40;2.55;;;0.90;;
56429;SDS011;42332;52.136;20.666;2023-06-04T08:14:07;6.85;;;1.90;;
56429;SDS011;42332;52.136;20.666;2023-06-04T08:16:33;4.68;;;0.85;;
56429;SDS011;42332;52.136;20.666;2023-06-04T08:18:58;4.15;;;0.75;;
56429;SDS011;42332;52.136;20.666;2023-06-04T08:21:26;1.67;;;0.77;;
56429;SDS011;42332;52.136;20.666;2023-06-04T08:23:52;6.55;;;1.17;;
56429;SDS011;42332;52.136;20.666;2023-06-04T08:26:18;3.25;;;1.10;;
56429;SDS011;42332;52.136;20.666;2023-06-04T08:28:44;3.15;;;0.80;;
56429;SDS011;42332;52.136;20.666;2023-06-04T08:31:12;3.97;;;1.40;;
56429;SDS011;42332;52.136;20.666;2023-06-04T08:33:37;8.85;;;1.25;;
56429;SDS011;42332;52.136;20.666;2023-06-04T08:36:03;1.38;;;0.70;;
56429;SDS011;42332;52.136;20.666;2023-06-04T08:38:28;2.78;;;0.95;;
56429;SDS011;42332;52.136;20.666;2023-06-04T08:40:53;2.28;;;0.90;;
56429;SDS011;42332;52.136;20.666;2023-06-04T08:43:21;3.60;;;1.25;;
56429;SDS011;42332;52.136;20.666;2023-06-04T08:45:49;11.48;;;3.28;;
56429;SDS011;42332;52.136;20.666;2023-06-04T08:48:15;8.73;;;2.45;;
56429;SDS011;42332;52.136;20.666;2023-06-04T08:50:43;6.90;;;2.10;;
56429;SDS011;42332;52.136;20.666;2023-06-04T08:53:12;3.03;;;0.95;;
56429;SDS011;42332;52.136;20.666;2023-06-04T08:55:39;1.88;;;0.77;;
56429;SDS011;42332;52.136;20.666;2023-06-04T08:58:05;13.00;;;3.50;;
56429;SDS011;42332;52.136;20.666;2023-06-04T09:00:33;6.70;;;2.17;;
56429;SDS011;42332;52.136;20.666;2023-06-04T09:02:58;4.95;;;1.08;;
56429;SDS011;42332;52.136;20.666;2023-06-04T09:05:27;8.38;;;1.00;;
56429;SDS011;42332;52.136;20.666;2023-06-04T09:07:52;3.80;;;1.20;;
56429;SDS011;42332;52.136;20.666;2023-06-04T09:10:20;3.10;;;0.90;;
56429;SDS011;42332;52.136;20.666;2023-06-04T09:12:47;2.63;;;0.93;;
56429;SDS011;42332;52.136;20.666;2023-06-04T09:15:13;5.50;;;0.90;;
56429;SDS011;42332;52.136;20.666;2023-06-04T09:17:38;4.43;;;0.93;;
56429;SDS011;42332;52.136;20.666;2023-06-04T09:20:04;6.00;;;1.23;;
56429;SDS011;42332;52.136;20.666;2023-06-04T09:22:33;2.92;;;0.90;;
56429;SDS011;42332;52.136;20.666;2023-06-04T09:25:06;4.68;;;0.90;;
56429;SDS011;42332;52.136;20.666;2023-06-04T09:27:39;5.15;;;1.38;;
56429;SDS011;42332;52.136;20.666;2023-06-04T09:30:05;2.28;;;0.88;;
56429;SDS011;42332;52.136;20.666;2023-06-04T09:32:31;7.97;;;1.20;;
56429;SDS011;42332;52.136;20.666;2023-06-04T09:35:07;3.60;;;0.88;;
56429;SDS011;42332;52.136;20.666;2023-06-04T09:37:34;1.65;;;0.73;;
56429;SDS011;42332;52.136;20.666;2023-06-04T09:40:00;2.42;;;0.90;;
56429;SDS011;42332;52.136;20.666;2023-06-04T09:42:25;2.85;;;0.82;;
56429;SDS011;42332;52.136;20.666;2023-06-04T09:44:51;1.42;;;0.60;;
56429;SDS011;42332;52.136;20.666;2023-06-04T09:47:16;3.25;;;1.00;;
56429;SDS011;42332;52.136;20.666;2023-06-04T09:49:42;3.20;;;0.95;;
56429;SDS011;42332;52.136;20.666;2023-06-04T09:52:08;5.40;;;0.85;;
56429;SDS011;42332;52.136;20.666;2023-06-04T09:54:35;2.70;;;0.93;;
56429;SDS011;42332;52.136;20.666;2023-06-04T09:57:01;2.10;;;0.93;;
56429;SDS011;42332;52.136;20.666;2023-06-04T09:59:27;2.97;;;0.93;;
56429;SDS011;42332;52.136;20.666;2023-06-04T10:01:53;1.45;;;0.68;;
56429;SDS011;42332;52.136;20.666;2023-06-04T10:04:20;3.60;;;1.00;;
56429;SDS011;42332;52.136;20.666;2023-06-04T10:06:46;2.78;;;1.00;;
56429;SDS011;42332;52.136;20.666;2023-06-04T10:09:11;3.53;;;1.13;;
56429;SDS011;42332;52.136;20.666;2023-06-04T10:11:44;2.30;;;0.80;;
56429;SDS011;42332;52.136;20.666;2023-06-04T10:14:24;4.20;;;1.00;;
56429;SDS011;42332;52.136;20.666;2023-06-04T10:16:51;6.00;;;1.13;;
56429;SDS011;42332;52.136;20.666;2023-06-04T10:19:16;3.47;;;0.80;;
56429;SDS011;42332;52.136;20.666;2023-06-04T10:21:43;4.05;;;0.90;;
56429;SDS011;42332;52.136;20.666;2023-06-04T10:24:08;4.22;;;1.20;;
56429;SDS011;42332;52.136;20.666;2023-06-04T10:26:34;2.33;;;0.70;;
56429;SDS011;42332;52.136;20.666;2023-06-04T10:29:00;2.00;;;1.00;;
56429;SDS011;42332;52.136;20.666;2023-06-04T10:31:26;4.95;;;0.90;;
56429;SDS011;42332;52.136;20.666;2023-06-04T10:33:55;2.63;;;0.95;;
56429;SDS011;42332;52.136;20.666;2023-06-04T10:36:21;2.25;;;0.70;;
56429;SDS011;42332;52.136;20.666;2023-06-04T10:38:48;4.63;;;1.30;;
56429;SDS011;42332;52.136;20.666;2023-06-04T10:41:14;3.75;;;1.00;;
56429;SDS011;42332;52.136;20.666;2023-06-04T10:43:41;2.67;;;0.80;;
56429;SDS011;42332;52.136;20.666;2023-06-04T10:46:11;7.72;;;1.25;;
56429;SDS011;42332;52.136;20.666;2023-06-04T10:48:44;8.82;;;0.80;;
56429;SDS011;42332;52.136;20.666;2023-06-04T10:51:17;2.63;;;0.80;;
56429;SDS011;42332;52.136;20.666;2023-06-04T10:53:57;5.63;;;0.82;;
56429;SDS011;42332;52.136;20.666;2023-06-04T10:56:27;4.47;;;0.90;;
56429;SDS011;42332;52.136;20.666;2023-06-04T10:58:57;3.30;;;0.90;;
56429;SDS011;42332;52.136;20.666;2023-06-04T11:01:26;1.40;;;0.60;;
56429;SDS011;42332;52.136;20.666;2023-06-04T11:03:53;3.10;;;0.90;;
56429;SDS011;42332;52.136;20.666;2023-06-04T11:06:19;7.78;;;1.05;;
56429;SDS011;42332;52.136;20.666;2023-06-04T11:08:46;2.42;;;0.80;;
56429;SDS011;42332;52.136;20.666;2023-06-04T11:11:12;2.60;;;1.02;;
56429;SDS011;42332;52.136;20.666;2023-06-04T11:13:38;1.60;;;0.70;;
56429;SDS011;42332;52.136;20.666;2023-06-04T11:16:13;4.88;;;0.80;;
56429;SDS011;42332;52.136;20.666;2023-06-04T11:18:42;4.57;;;0.80;;
56429;SDS011;42332;52.136;20.666;2023-06-04T11:21:08;2.90;;;0.95;;
56429;SDS011;42332;52.136;20.666;2023-06-04T11:23:33;3.22;;;0.90;;
56429;SDS011;42332;52.136;20.666;2023-06-04T11:25:59;5.43;;;0.95;;
56429;SDS011;42332;52.136;20.666;2023-06-04T11:28:24;2.78;;;1.00;;
56429;SDS011;42332;52.136;20.666;2023-06-04T11:30:57;4.88;;;1.00;;
56429;SDS011;42332;52.136;20.666;2023-06-04T11:33:22;3.95;;;1.00;;
56429;SDS011;42332;52.136;20.666;2023-06-04T11:35:48;4.68;;;0.93;;
56429;SDS011;42332;52.136;20.666;2023-06-04T11:38:13;3.83;;;1.02;;
56429;SDS011;42332;52.136;20.666;2023-06-04T11:40:38;3.60;;;0.65;;
56429;SDS011;42332;52.136;20.666;2023-06-04T11:43:08;4.65;;;1.02;;
56429;SDS011;42332;52.136;20.666;2023-06-04T11:45:35;2.80;;;1.00;;
56429;SDS011;42332;52.136;20.666;2023-06-04T11:48:01;1.85;;;0.75;;
56429;SDS011;42332;52.136;20.666;2023-06-04T11:50:29;2.30;;;0.90;;
56429;SDS011;42332;52.136;20.666;2023-06-04T11:52:56;2.78;;;0.80;;
56429;SDS011;42332;52.136;20.666;2023-06-04T11:55:21;3.80;;;0.90;;
56429;SDS011;42332;52.136;20.666;2023-06-04T11:57:47;2.95;;;0.85;;
56429;SDS011;42332;52.136;20.666;2023-06-04T12:00:13;3.70;;;0.80;;
56429;SDS011;42332;52.136;20.666;2023-06-04T12:02:48;7.57;;;1.40;;
56429;SDS011;42332;52.136;20.666;2023-06-04T12:05:18;3.33;;;0.90;;
56429;SDS011;42332;52.136;20.666;2023-06-04T12:07:44;2.60;;;0.95;;
56429;SDS011;42332;52.136;20.666;2023-06-04T12:10:10;4.05;;;0.70;;
56429;SDS011;42332;52.136;20.666;2023-06-04T12:12:37;4.00;;;0.90;;
56429;SDS011;42332;52.136;20.666;2023-06-04T12:15:02;2.13;;;0.70;;
56429;SDS011;42332;52.136;20.666;2023-06-04T12:17:30;2.35;;;0.70;;
56429;SDS011;42332;52.136;20.666;2023-06-04T12:19:56;6.30;;;1.52;;
56429;SDS011;42332;52.136;20.666;2023-06-04T12:22:23;2.75;;;0.80;;
56429;SDS011;42332;52.136;20.666;2023-06-04T12:24:52;6.78;;;1.00;;
56429;SDS011;42332;52.136;20.666;2023-06-04T12:27:19;3.97;;;0.90;;
56429;SDS011;42332;52.136;20.666;2023-06-04T12:29:59;7.30;;;1.02;;
56429;SDS011;42332;52.136;20.666;2023-06-04T12:32:25;16.90;;;1.00;;
56429;SDS011;42332;52.136;20.666;2023-06-04T12:34:51;2.72;;;0.80;;
56429;SDS011;42332;52.136;20.666;2023-06-04T12:37:16;2.17;;;0.80;;
56429;SDS011;42332;52.136;20.666;2023-06-04T12:39:42;3.53;;;0.90;;
56429;SDS011;42332;52.136;20.666;2023-06-04T12:42:08;2.33;;;0.82;;
56429;SDS011;42332;52.136;20.666;2023-06-04T12:44:40;1.77;;;0.80;;
56429;SDS011;42332;52.136;20.666;2023-06-04T12:47:05;2.38;;;0.82;;
56429;SDS011;42332;52.136;20.666;2023-06-04T12:49:31;2.95;;;0.82;;
56429;SDS011;42332;52.136;20.666;2023-06-04T12:51:57;2.83;;;0.93;;
56429;SDS011;42332;52.136;20.666;2023-06-04T12:54:22;3.67;;;1.00;;
56429;SDS011;42332;52.136;20.666;2023-06-04T12:56:47;1.58;;;0.65;;
56429;SDS011;42332;52.136;20.666;2023-06-04T12:59:13;3.25;;;0.80;;
56429;SDS011;42332;52.136;20.666;2023-06-04T13:01:38;3.28;;;0.90;;
56429;SDS011;42332;52.136;20.666;2023-06-04T13:04:04;3.90;;;1.00;;
56429;SDS011;42332;52.136;20.666;2023-06-04T13:06:30;6.75;;;0.90;;
56429;SDS011;42332;52.136;20.666;2023-06-04T13:08:56;5.15;;;1.23;;
56429;SDS011;42332;52.136;20.666;2023-06-04T13:11:21;4.18;;;0.90;;
56429;SDS011;42332;52.136;20.666;2023-06-04T13:13:47;2.97;;;0.90;;
56429;SDS011;42332;52.136;20.666;2023-06-04T13:16:12;2.60;;;0.80;;
56429;SDS011;42332;52.136;20.666;2023-06-04T13:18:38;4.78;;;0.85;;
56429;SDS011;42332;52.136;20.666;2023-06-04T13:21:03;4.65;;;0.80;;
56429;SDS011;42332;52.136;20.666;2023-06-04T13:23:28;3.10;;;0.90;;
56429;SDS011;42332;52.136;20.666;2023-06-04T13:25:54;3.67;;;0.80;;
56429;SDS011;42332;52.136;20.666;2023-06-04T13:28:19;4.32;;;0.68;;
56429;SDS011;42332;52.136;20.666;2023-06-04T13:30:45;2.78;;;0.80;;
56429;SDS011;42332;52.136;20.666;2023-06-04T13:33:10;3.60;;;1.00;;
56429;SDS011;42332;52.136;20.666;2023-06-04T13:35:36;4.88;;;1.75;;
56429;SDS011;42332;52.136;20.666;2023-06-04T13:38:04;3.25;;;0.85;;
56429;SDS011;42332;52.136;20.666;2023-06-04T13:40:31;3.97;;;0.90;;
56429;SDS011;42332;52.136;20.666;2023-06-04T13:42:59;8.25;;;0.82;;
56429;SDS011;42332;52.136;20.666;2023-06-04T13:45:24;2.97;;;0.80;;
56429;SDS011;42332;52.136;20.666;2023-06-04T13:47:50;3.75;;;0.85;;
56429;SDS011;42332;52.136;20.666;2023-06-04T13:50:15;2.40;;;0.80;;
56429;SDS011;42332;52.136;20.666;2023-06-04T13:52:40;3.42;;;1.13;;
56429;SDS011;42332;52.136;20.666;2023-06-04T13:55:06;3.70;;;1.02;;
56429;SDS011;42332;52.136;20.666;2023-06-04T13:57:32;2.88;;;0.80;;
56429;SDS011;42332;52.136;20.666;2023-06-04T13:59:57;4.68;;;0.80;;
56429;SDS011;42332;52.136;20.666;2023-06-04T14:02:22;2.90;;;0.95;;
56429;SDS011;42332;52.136;20.666;2023-06-04T14:04:49;5.68;;;0.93;;
56429;SDS011;42332;52.136;20.666;2023-06-04T14:07:15;3.40;;;0.90;;
56429;SDS011;42332;52.136;20.666;2023-06-04T14:09:41;2.75;;;0.90;;
56429;SDS011;42332;52.136;20.666;2023-06-04T14:12:07;3.88;;;0.90;;
56429;SDS011;42332;52.136;20.666;2023-06-04T14:14:33;2.80;;;0.70;;
56429;SDS011;42332;52.136;20.666;2023-06-04T14:17:05;7.35;;;0.80;;
56429;SDS011;42332;52.136;20.666;2023-06-04T14:19:32;2.92;;;0.90;;
56429;SDS011;42332;52.136;20.666;2023-06-04T14:21:57;5.18;;;1.77;;
56429;SDS011;42332;52.136;20.666;2023-06-04T14:24:23;1.63;;;0.80;;
56429;SDS011;42332;52.136;20.666;2023-06-04T14:26:48;1.45;;;0.63;;
56429;SDS011;42332;52.136;20.666;2023-06-04T14:29:13;14.98;;;1.13;;
56429;SDS011;42332;52.136;20.666;2023-06-04T14:31:39;3.97;;;0.95;;
56429;SDS011;42332;52.136;20.666;2023-06-04T14:34:04;5.90;;;1.27;;